»·PEaware :: N364CM KBUR-KLAS

N364CM :: KBUR-KLAS

FLIGHT INFORMATION

Flight Status: Arrived
Operator: Privately registered:
United States
More flights under this callsign
Pilot: Brian S. (32023)
Aircraft: BEECH AIRCRAFT SUPER KING AIR 350
(B350)
More flights by this aircraft type
Origin: KBUR Bob Hope-Burbank
United States
Destination: KLAS McCarran Intl
United States
More flights between these airports :: More routes between these airports
Route: VNY3 DAG CRESO4
File this flight plan on PilotEdge
Remarks:
Altitude:
(Current/Filed)
15,000ft
Speed:
(Current/Filed)
260kts
Departed: 02-Nov-20 09:35 PM
Arrived: 02-Nov-20 10:39 PM
Distance/Time
Traveled:
193nm/1:04
Distance/Time
To Go:
Arrived

Flight Plot

Page will automatically refresh every two minutes.

Flight plan parsing failed; only flown route is shown


Map Options




Map Legend


Flown Route
Filed Route
Departure Airport
Arrival Airport
Navaid (VOR, NDB)
Fix

Horizontal Profiles

Position Reports

Time Latitude Longitude Heading Altitude Ground
Speed
02-Nov-20 21:18 34.200206 -118.358837 280 722ft 0kts
02-Nov-20 21:19 34.200206 -118.358837 280 722ft 0kts
02-Nov-20 21:20 34.200206 -118.358837 280 722ft 0kts
02-Nov-20 21:21 34.200206 -118.358837 280 722ft 0kts
02-Nov-20 21:22 34.200206 -118.358837 280 722ft 0kts
02-Nov-20 21:23 34.200206 -118.358837 280 722ft 0kts
02-Nov-20 21:24 34.200206 -118.358837 280 722ft 0kts
02-Nov-20 21:25 34.200206 -118.358837 280 722ft 0kts
02-Nov-20 21:26 34.200206 -118.358837 280 722ft 0kts
02-Nov-20 21:27 34.200206 -118.358837 280 722ft 0kts
02-Nov-20 21:28 34.200206 -118.358837 280 722ft 0kts
02-Nov-20 21:29 34.200770 -118.358729 349 724ft 10kts
02-Nov-20 21:30 34.203080 -118.359059 346 734ft 12kts
02-Nov-20 21:31 34.205957 -118.359852 347 743ft 11kts
02-Nov-20 21:32 34.209866 -118.360925 347 763ft 14kts
02-Nov-20 21:33 34.211484 -118.360224 163 766ft 13kts
02-Nov-20 21:34 34.185599 -118.352884 177 820ft 157kts
02-Nov-20 21:35 34.150952 -118.387909 226 1683ft 174kts
02-Nov-20 21:36 34.117063 -118.430199 226 2727ft 177kts
02-Nov-20 21:37 34.082585 -118.473214 226 3708ft 179kts
02-Nov-20 21:38 34.044885 -118.520244 226 3904ft 215kts
02-Nov-20 21:39 34.007250 -118.575858 267 4818ft 188kts
02-Nov-20 21:40 34.046047 -118.594555 11 5742ft 183kts
02-Nov-20 21:41 34.094502 -118.576236 29 6559ft 184kts
02-Nov-20 21:43 34.139689 -118.546390 28 7332ft 186kts
02-Nov-20 21:44 34.185169 -118.516388 28 8063ft 187kts
02-Nov-20 21:45 34.230970 -118.486139 28 8754ft 188kts
02-Nov-20 21:46 34.276779 -118.455846 28 9404ft 189kts
02-Nov-20 21:47 34.322987 -118.425250 28 10020ft 189kts
02-Nov-20 21:48 34.367728 -118.392047 28 10589ft 190kts
02-Nov-20 21:49 34.414872 -118.362410 27 11135ft 191kts
02-Nov-20 21:50 34.462189 -118.332329 38 11841ft 193kts
02-Nov-20 21:51 34.494960 -118.282223 52 12840ft 188kts
02-Nov-20 21:52 34.526519 -118.231858 52 13828ft 188kts
02-Nov-20 21:53 34.558161 -118.181248 52 14819ft 189kts
02-Nov-20 21:54 34.592704 -118.125900 52 14885ft 222kts
02-Nov-20 21:55 34.630518 -118.062042 72 14850ft 242kts
02-Nov-20 21:56 34.640559 -117.979892 82 14873ft 250kts
02-Nov-20 21:57 34.649844 -117.895255 82 14872ft 255kts
02-Nov-20 21:58 34.659145 -117.809549 82 14871ft 257kts
02-Nov-20 21:59 34.674117 -117.724835 72 14870ft 257kts
02-Nov-20 22:00 34.695404 -117.641701 72 14871ft 258kts
02-Nov-20 22:01 34.716653 -117.558633 72 14871ft 258kts
02-Nov-20 22:01 34.734399 -117.489072 72 14871ft 258kts
02-Nov-20 22:03 34.759148 -117.391741 72 14871ft 258kts
02-Nov-20 22:03 34.777288 -117.320167 73 14880ft 276kts
02-Nov-20 22:04 34.800499 -117.228268 73 14874ft 290kts
02-Nov-20 22:05 34.824329 -117.133604 73 14872ft 295kts
02-Nov-20 22:06 34.848383 -117.037705 73 14871ft 297kts
02-Nov-20 22:07 34.872423 -116.941506 73 14871ft 297kts
02-Nov-20 22:08 34.896467 -116.844928 73 14871ft 298kts
02-Nov-20 22:09 34.920404 -116.748423 73 14871ft 298kts
02-Nov-20 22:10 34.944313 -116.651665 73 14871ft 298kts
02-Nov-20 22:11 34.971992 -116.556901 62 14888ft 297kts
02-Nov-20 22:12 35.011438 -116.467957 61 14871ft 298kts
02-Nov-20 22:13 35.050907 -116.378963 61 14871ft 298kts
02-Nov-20 22:14 35.090187 -116.290192 61 14871ft 298kts
02-Nov-20 22:15 35.129640 -116.200786 61 14871ft 298kts
02-Nov-20 22:16 35.168834 -116.111736 61 14871ft 298kts
02-Nov-20 22:17 35.208074 -116.022347 61 14871ft 298kts
02-Nov-20 22:18 35.247204 -115.932974 61 14871ft 298kts
02-Nov-20 22:19 35.286279 -115.843489 61 14871ft 298kts
02-Nov-20 22:20 35.331422 -115.759465 46 14884ft 297kts
02-Nov-20 22:21 35.387593 -115.684513 47 14871ft 298kts
02-Nov-20 22:22 35.443616 -115.609671 47 14871ft 298kts
02-Nov-20 22:23 35.499481 -115.534877 47 14871ft 298kts
02-Nov-20 22:24 35.553662 -115.462226 47 13800ft 280kts
02-Nov-20 22:25 35.604385 -115.394083 47 12180ft 259kts
02-Nov-20 22:26 35.651744 -115.330368 47 10366ft 247kts
02-Nov-20 22:27 35.712668 -115.296075 21 8563ft 240kts
02-Nov-20 22:28 35.774071 -115.267117 21 7865ft 243kts
02-Nov-20 22:29 35.839418 -115.236230 21 7098ft 256kts
02-Nov-20 22:30 35.906126 -115.204676 21 5843ft 259kts
02-Nov-20 22:31 35.973405 -115.172797 21 5384ft 262kts
02-Nov-20 22:32 36.036263 -115.137172 24 4835ft 227kts
02-Nov-20 22:33 36.084961 -115.109983 24 4850ft 183kts
02-Nov-20 22:34 36.128348 -115.086575 8 3435ft 162kts
02-Nov-20 22:35 36.147487 -115.120197 234 2629ft 133kts
02-Nov-20 22:36 36.118881 -115.144785 206 2618ft 128kts
02-Nov-20 22:37 36.090287 -115.161773 206 2121ft 59kts
02-Nov-20 22:38 36.084249 -115.165852 227 2149ft 18kts
02-Nov-20 22:39 36.082645 -115.167966 258 2160ft 8kts
02-Nov-20 22:40 36.081123 -115.169458 205 2167ft 8kts
02-Nov-20 22:41 36.080693 -115.170835 294 2171ft 0kts
02-Nov-20 22:42 36.080694 -115.170835 294 2171ft 0kts
02-Nov-20 22:43 36.080693 -115.170835 294 2171ft 0kts

Navigation Log

Ident Type
Flight plan parsing failed, navigation log unavailable